Hauptseite
METAR-TAF:

METAR-TAF

Flughäfen :

Prato Nevoso, Italien

Monte Malanotte

Breite: 44-15N, Länge: 007-48E, Höhe: 1741 m

Beobachtung

Neuester Wetterbericht von vor 26 Minuten, um 10:55 UTC
Wind 4 kt aus Nordost, variierte zwischen Nord/Nordost und Ost
Temperatur 9°C
Luftfeuchtigkeit 81%
Luftdruck 1020 hPa
Sichtweite: 6000 m

METAR: LIMY 231055Z 04004KT 020V090 6000 NSC 09/06 Q1020 RMK SCT SCT180 VAL FOSCHIA VIS MIN 6000

Zeit: 12:21 (11:21 UTC)


TAF: fehlend

Wetterbeobachtungen und Prognosen von mehr als 4000 Flughäfen (METAR und TAF Bericht).

Die verfügbaren Stationen werden durch gelbe und rote Markierungen auf der Karte dargestellt.

Führen Sie die Maus auf sie, um den Namen der Station zu sehen.

Darauf klicken, um die Beobachtung von Wetterbeobachtungen und Prognosen zu sehen.

Um die Karte zu ändern : klicken Sie auf den grünen Tasten mit einem schwarzen Kreuz Zum Vergrößern, auf den grünen Button mit einem Gedankenstrich zu verkleinern, oder auf die grünen Pfeile für benachbarte Karten.


METAR-TAF: